Terminal Aerodrome Forecast
Issued by NWS Shreveport, LA

Current Version | Previous Version | Text Only | Print | Product List | Glossary On
Versions: 1 2 3 4 5 6 7 8 9 10 11 12 13 14 15 16 17 18 19 20 21
000
FTUS44 KSHV 221125
TAFTXK
TAF
KTXK 221125Z 2212/2312 VRB04KT P6SM -SHRA SCT050 OVC100
     FM222000 12006KT P6SM SKC
     FM230500 VRB03KT P6SM SCT060 BKN250
      TEMPO 2309/2312 4SM BR=

USA.gov is the U.S. government's official web portal to all federal, state and local government web resources and services.